Time;durP1;ratioP1;P1;durP2;ratioP2;P2;SDS_P1;SDS_P2;PMS_P1;PMS_P2;Temp;Humidity;BMP_temperature;BMP_pressure;BME280_temperature;BME280_humidity;BME280_pressure;Samples;Min_cycle;Max_cycle;Signal;HPM_P1;HPM_P2
2022/08/29 00:01:34;;;;;;;6.85;2.15;;;17.30;99.90;;;;;;5082508;28;20031;-70
2022/08/29 00:04:01;;;;;;;7.35;1.92;;;17.20;99.90;;;;;;5118088;27;20044;-70
2022/08/29 00:06:27;;;;;;;7.78;1.63;;;17.20;99.90;;;;;;5084285;28;20048;-70
2022/08/29 00:08:53;;;;;;;9.52;1.73;;;17.10;99.90;;;;;;5085643;28;20048;-70
2022/08/29 00:11:19;;;;;;;9.90;2.00;;;17.10;99.90;;;;;;5084716;28;20042;-70
2022/08/29 00:13:45;;;;;;;9.65;1.55;;;17.00;99.90;;;;;;5117961;27;20129;-70
2022/08/29 00:16:11;;;;;;;10.65;1.75;;;17.00;99.90;;;;;;5086017;28;20424;-70
2022/08/29 00:18:37;;;;;;;11.20;2.10;;;17.00;99.90;;;;;;5085692;28;20037;-70
2022/08/29 00:21:03;;;;;;;9.68;1.98;;;17.00;99.90;;;;;;5086671;28;20044;-70
2022/08/29 00:23:29;;;;;;;7.72;1.73;;;17.00;99.90;;;;;;5099238;28;20028;-70
2022/08/29 00:25:55;;;;;;;9.00;1.67;;;17.00;99.90;;;;;;5085451;28;20188;-70
2022/08/29 00:28:22;;;;;;;8.55;1.83;;;17.00;99.90;;;;;;5086239;28;20043;-71
2022/08/29 00:30:48;;;;;;;7.53;1.73;;;17.00;99.90;;;;;;5116662;28;20089;-70
2022/08/29 00:33:15;;;;;;;11.63;2.15;;;17.00;99.90;;;;;;5086325;28;20048;-70
2022/08/29 00:35:42;;;;;;;6.25;1.42;;;17.10;99.90;;;;;;5083483;28;20040;-70
2022/08/29 00:38:10;;;;;;;9.13;1.70;;;17.10;99.90;;;;;;5086345;28;20048;-70
2022/08/29 00:40:43;;;;;;;13.18;2.10;;;17.10;99.90;;;;;;5086021;28;20123;-70
2022/08/29 00:43:09;;;;;;;9.15;1.88;;;17.10;99.90;;;;;;5085645;28;20444;-70
2022/08/29 00:45:41;;;;;;;7.95;1.60;;;17.10;99.90;;;;;;5086274;28;20040;-71
2022/08/29 00:48:11;;;;;;;12.35;2.10;;;17.20;99.90;;;;;;5096516;28;20031;-70
2022/08/29 00:50:46;;;;;;;5.35;1.83;;;17.10;99.90;;;;;;5089436;28;20485;-70
2022/08/29 00:53:15;;;;;;;11.68;2.00;;;17.20;99.90;;;;;;5088946;28;20135;-70
2022/08/29 00:55:44;;;;;;;10.77;2.05;;;17.30;99.90;;;;;;5088508;28;20392;-69
2022/08/29 00:58:20;;;;;;;7.63;2.03;;;17.20;99.90;;;;;;5099098;28;20146;-70
2022/08/29 01:00:47;;;;;;;7.40;1.70;;;17.20;99.90;;;;;;5088347;28;20554;-70
2022/08/29 01:03:13;;;;;;;7.78;1.75;;;17.20;99.90;;;;;;5089049;28;20408;-70
2022/08/29 01:05:40;;;;;;;11.88;1.80;;;17.20;99.90;;;;;;5088128;28;20048;-69
2022/08/29 01:08:06;;;;;;;11.82;1.85;;;17.10;99.90;;;;;;5090464;28;20140;-70
2022/08/29 01:13:23;;;;;;;13.60;2.55;;;17.00;99.90;;;;;;5088540;28;20091;-70
2022/08/29 01:15:49;;;;;;;11.57;2.78;;;16.90;99.90;;;;;;5121054;27;20339;-71
2022/08/29 01:18:16;;;;;;;7.55;1.67;;;16.90;99.90;;;;;;5089788;28;20042;-70
2022/08/29 01:21:15;;;;;;;7.18;1.58;;;16.90;99.90;;;;;;5088606;28;20437;-70
2022/08/29 01:23:49;;;;;;;6.28;1.73;;;16.80;99.90;;;;;;5110975;27;20132;-71
2022/08/29 01:26:15;;;;;;;8.02;2.15;;;16.80;99.90;;;;;;5087139;28;20122;-70
2022/08/29 01:28:45;;;;;;;12.93;2.20;;;16.80;99.90;;;;;;5089173;28;20111;-70
2022/08/29 01:31:19;;;;;;;7.15;1.65;;;16.80;99.90;;;;;;5088076;28;20044;-71
2022/08/29 01:33:50;;;;;;;10.18;1.83;;;16.80;99.90;;;;;;5088491;28;20456;-70
2022/08/29 01:36:23;;;;;;;9.00;1.80;;;16.80;99.90;;;;;;5087558;28;20126;-70
2022/08/29 01:38:49;;;;;;;9.50;2.33;;;16.80;99.90;;;;;;5086512;28;20082;-70
2022/08/29 01:41:17;;;;;;;10.48;1.95;;;16.80;99.90;;;;;;5100596;28;20486;-70
2022/08/29 01:43:45;;;;;;;8.27;1.85;;;16.80;99.90;;;;;;5087621;28;20040;-70
2022/08/29 01:46:14;;;;;;;8.23;1.67;;;16.90;99.90;;;;;;5088213;28;20174;-70
2022/08/29 01:48:43;;;;;;;9.35;2.25;;;16.90;99.90;;;;;;5086255;28;20044;-71
2022/08/29 01:51:10;;;;;;;17.65;3.03;;;16.90;99.90;;;;;;5088715;28;20385;-71
2022/08/29 01:53:37;;;;;;;8.55;1.58;;;16.90;99.90;;;;;;5085714;28;20177;-70
2022/08/29 01:56:30;;;;;;;15.63;2.42;;;16.90;99.90;;;;;;5087797;28;20044;-70
2022/08/29 01:59:01;;;;;;;9.57;2.10;;;16.90;99.90;;;;;;5088183;28;20055;-71
2022/08/29 02:01:32;;;;;;;14.23;2.60;;;16.90;99.90;;;;;;5088656;28;20040;-70
2022/08/29 02:03:58;;;;;;;8.90;2.70;;;16.90;99.90;;;;;;5086577;28;20036;-70
2022/08/29 02:06:25;;;;;;;6.75;2.20;;;16.90;99.90;;;;;;5086067;28;20062;-70
2022/08/29 02:08:51;;;;;;;9.18;1.90;;;17.00;99.90;;;;;;5082084;28;20059;-70
2022/08/29 02:11:17;;;;;;;8.70;1.98;;;16.90;99.90;;;;;;5119798;27;20044;-69
2022/08/29 02:13:54;;;;;;;14.93;2.80;;;17.00;99.90;;;;;;5087743;28;20040;-70
2022/08/29 02:16:21;;;;;;;13.95;2.17;;;17.00;99.90;;;;;;5120691;27;20528;-93
2022/08/29 02:18:47;;;;;;;19.67;2.47;;;17.10;99.90;;;;;;5089623;28;20109;-70
2022/08/29 02:21:16;;;;;;;14.70;2.60;;;17.10;99.90;;;;;;5087823;28;20044;-69
2022/08/29 02:23:43;;;;;;;17.10;2.75;;;17.10;99.90;;;;;;5086849;28;20052;-70
2022/08/29 02:26:09;;;;;;;14.75;3.15;;;17.10;99.90;;;;;;5087810;28;20071;-69
2022/08/29 02:28:36;;;;;;;13.05;2.85;;;17.00;99.90;;;;;;5087149;28;20066;-70
2022/08/29 02:31:03;;;;;;;12.48;2.35;;;17.00;99.90;;;;;;5089028;28;20545;-69
2022/08/29 02:33:30;;;;;;;9.15;2.53;;;17.10;99.90;;;;;;5085988;28;20052;-71
2022/08/29 02:35:55;;;;;;;14.77;2.70;;;17.00;99.90;;;;;;5119760;27;20055;-70
2022/08/29 02:38:21;;;;;;;8.02;1.92;;;17.10;99.90;;;;;;5086743;28;20490;-71
2022/08/29 02:40:49;;;;;;;18.95;2.70;;;17.00;99.90;;;;;;5118003;27;20517;-69
2022/08/29 02:43:16;;;;;;;9.48;2.33;;;17.10;99.90;;;;;;5087263;28;20040;-71
2022/08/29 02:45:42;;;;;;;12.15;3.03;;;17.10;99.90;;;;;;5086930;28;20066;-71
2022/08/29 02:48:10;;;;;;;13.93;2.50;;;17.10;99.90;;;;;;5106481;27;20517;-70
2022/08/29 02:50:42;;;;;;;9.82;2.42;;;17.10;99.90;;;;;;5086725;28;20044;-70
2022/08/29 02:53:10;;;;;;;8.10;2.25;;;17.10;99.90;;;;;;5120490;27;20047;-70
2022/08/29 02:55:36;;;;;;;10.32;2.75;;;17.00;99.90;;;;;;5121028;27;20032;-74
2022/08/29 02:58:02;;;;;;;9.80;2.10;;;17.00;99.90;;;;;;5089236;28;20055;-71
2022/08/29 03:00:28;;;;;;;8.85;2.17;;;17.10;99.90;;;;;;5086726;28;20032;-70
2022/08/29 03:02:55;;;;;;;4.95;1.90;;;17.00;99.90;;;;;;5084450;28;20055;-71
2022/08/29 03:05:26;;;;;;;11.70;2.25;;;17.00;99.90;;;;;;5088098;28;20032;-70
2022/08/29 03:07:56;;;;;;;6.85;2.05;;;17.00;99.90;;;;;;5087157;28;20044;-70
2022/08/29 03:10:23;;;;;;;6.88;1.73;;;17.00;99.90;;;;;;5087215;28;20130;-70
2022/08/29 03:12:49;;;;;;;5.45;1.95;;;17.00;99.90;;;;;;5085318;28;20390;-70
2022/08/29 03:15:15;;;;;;;10.82;2.40;;;17.00;99.90;;;;;;5088354;28;20040;-70
2022/08/29 03:17:41;;;;;;;5.97;1.50;;;17.00;99.90;;;;;;5089157;28;20064;-70
2022/08/29 03:20:08;;;;;;;5.88;1.60;;;17.00;99.90;;;;;;5119333;27;20071;-70
2022/08/29 03:22:35;;;;;;;7.22;1.83;;;17.00;99.90;;;;;;5103401;28;20348;-96
2022/08/29 03:25:02;;;;;;;10.52;2.13;;;17.00;99.90;;;;;;5086699;28;20036;-94
2022/08/29 03:27:29;;;;;;;6.07;1.60;;;17.00;99.90;;;;;;5118846;27;20109;-70
2022/08/29 03:29:55;;;;;;;7.20;1.60;;;17.00;99.90;;;;;;5084361;28;20051;-71
2022/08/29 03:32:21;;;;;;;7.70;1.95;;;17.00;99.90;;;;;;5087491;28;20090;-80
2022/08/29 03:34:46;;;;;;;4.55;1.80;;;17.00;99.90;;;;;;5086816;28;20044;-71
2022/08/29 03:37:12;;;;;;;8.52;1.65;;;17.00;99.90;;;;;;5087865;28;20044;-70
2022/08/29 03:39:38;;;;;;;6.60;1.55;;;17.00;99.90;;;;;;5088759;28;20040;-71
2022/08/29 03:42:06;;;;;;;10.85;2.70;;;17.00;99.90;;;;;;5084190;28;20452;-71
2022/08/29 03:44:41;;;;;;;5.68;1.60;;;17.00;99.90;;;;;;5086708;28;20077;-71
2022/08/29 03:47:08;;;;;;;9.48;1.98;;;17.00;99.90;;;;;;5085677;28;20048;-71
2022/08/29 03:49:34;;;;;;;9.68;2.08;;;17.00;99.90;;;;;;5085811;28;20177;-71
2022/08/29 03:52:01;;;;;;;8.60;2.63;;;17.00;99.90;;;;;;5085200;28;20494;-70
2022/08/29 03:54:27;;;;;;;10.80;2.13;;;17.10;99.90;;;;;;5083528;28;20083;-71
2022/08/29 03:56:54;;;;;;;14.65;2.45;;;17.10;99.90;;;;;;5087549;28;20039;-71
2022/08/29 03:59:20;;;;;;;11.18;2.22;;;17.10;99.90;;;;;;5088389;28;20111;-71
2022/08/29 04:01:47;;;;;;;8.77;1.98;;;17.10;99.90;;;;;;5088045;28;20158;-77
2022/08/29 04:05:05;;;;;;;17.55;2.78;;;17.20;99.90;;;;;;5086456;28;20553;-71
2022/08/29 04:07:01;;;;;;;11.52;2.60;;;17.10;99.90;;;;;;5088146;28;20536;-71
2022/08/29 04:09:27;;;;;;;11.38;2.70;;;17.20;99.90;;;;;;5087875;28;20538;-74
2022/08/29 04:11:53;;;;;;;12.48;2.75;;;17.20;99.90;;;;;;5118677;28;20047;-71
2022/08/29 04:14:19;;;;;;;13.30;2.92;;;17.20;99.90;;;;;;5083927;28;20052;-71
2022/08/29 04:16:49;;;;;;;11.90;2.80;;;17.20;99.90;;;;;;5084959;28;20040;-70
2022/08/29 04:19:19;;;;;;;15.32;2.85;;;17.20;99.90;;;;;;5086388;28;20496;-71
2022/08/29 04:21:47;;;;;;;14.07;2.42;;;17.20;99.90;;;;;;5089478;28;20039;-71
2022/08/29 04:24:14;;;;;;;9.35;2.28;;;17.20;99.90;;;;;;5122606;27;20059;-71
2022/08/29 04:26:39;;;;;;;25.83;4.38;;;17.20;99.90;;;;;;5088515;28;20415;-70
2022/08/29 04:29:10;;;;;;;11.80;3.05;;;17.20;99.90;;;;;;5089329;28;20036;-70
2022/08/29 04:31:37;;;;;;;11.40;2.75;;;17.20;99.90;;;;;;5091111;28;20126;-70
2022/08/29 04:34:05;;;;;;;19.90;3.15;;;17.30;99.90;;;;;;5089793;28;20048;-71
2022/08/29 04:36:33;;;;;;;16.30;2.90;;;17.30;99.90;;;;;;5121012;27;20040;-71
2022/08/29 04:38:59;;;;;;;14.45;3.47;;;17.30;99.90;;;;;;5088630;28;20036;-70
2022/08/29 04:41:25;;;;;;;13.68;3.28;;;17.40;99.90;;;;;;5089399;28;20052;-70
2022/08/29 04:43:51;;;;;;;19.00;3.08;;;17.40;99.90;;;;;;5096224;28;20040;-70
2022/08/29 04:46:17;;;;;;;25.17;3.60;;;17.40;99.90;;;;;;5091218;28;20591;-85
2022/08/29 04:48:43;;;;;;;11.35;3.15;;;17.40;99.90;;;;;;5091714;28;20139;-70
2022/08/29 04:51:09;;;;;;;12.88;3.35;;;17.30;99.90;;;;;;5086586;28;20052;-71
2022/08/29 04:53:36;;;;;;;10.00;2.60;;;17.30;99.90;;;;;;5091539;28;20058;-70
2022/08/29 04:56:09;;;;;;;15.10;3.38;;;17.30;99.90;;;;;;5088124;28;20040;-70
2022/08/29 04:58:37;;;;;;;14.23;3.10;;;17.30;99.90;;;;;;5086364;28;20075;-70
2022/08/29 05:01:03;;;;;;;15.85;2.55;;;17.30;99.90;;;;;;5089318;28;20056;-70
2022/08/29 05:03:29;;;;;;;16.85;3.75;;;17.30;99.90;;;;;;5092611;28;20036;-70
2022/08/29 05:06:07;;;;;;;13.20;2.63;;;17.30;99.90;;;;;;5089448;28;20186;-70
2022/08/29 05:08:35;;;;;;;13.43;2.58;;;17.30;99.90;;;;;;5091285;28;20051;-79
2022/08/29 05:11:00;;;;;;;10.60;2.80;;;17.30;99.90;;;;;;5089105;28;20048;-70
2022/08/29 05:13:26;;;;;;;14.27;2.90;;;17.30;99.90;;;;;;5093248;28;20047;-70
2022/08/29 05:15:52;;;;;;;16.23;3.75;;;17.40;99.90;;;;;;5091494;28;20054;-70
2022/08/29 05:18:18;;;;;;;17.95;3.75;;;17.50;99.90;;;;;;5088848;28;20040;-70
2022/08/29 05:20:47;;;;;;;14.82;3.42;;;17.50;99.90;;;;;;5090714;28;20068;-71
2022/08/29 05:23:15;;;;;;;17.75;3.28;;;17.50;99.90;;;;;;5089236;28;20131;-70
2022/08/29 05:25:42;;;;;;;19.13;3.80;;;17.60;99.90;;;;;;5122642;27;20055;-70
2022/08/29 05:28:12;;;;;;;16.63;3.17;;;17.60;99.90;;;;;;5086649;28;20132;-70
2022/08/29 05:30:39;;;;;;;18.85;4.32;;;17.60;99.90;;;;;;5087809;28;20040;-70
2022/08/29 05:33:06;;;;;;;24.13;4.47;;;17.60;99.90;;;;;;5095922;28;20040;-70
2022/08/29 05:35:33;;;;;;;17.73;3.60;;;17.60;99.90;;;;;;5086967;28;20124;-70
2022/08/29 05:38:01;;;;;;;15.07;3.47;;;17.60;99.90;;;;;;5088289;28;20048;-71
2022/08/29 05:40:27;;;;;;;18.65;4.30;;;17.70;99.90;;;;;;5089890;28;20059;-70
2022/08/29 05:42:53;;;;;;;14.50;2.97;;;17.70;99.90;;;;;;5088257;28;20320;-70
2022/08/29 05:45:19;;;;;;;12.90;2.60;;;17.70;99.90;;;;;;5089408;28;20044;-71
2022/08/29 05:47:44;;;;;;;16.05;3.47;;;17.70;99.90;;;;;;5086623;28;20044;-85
2022/08/29 05:50:12;;;;;;;23.27;3.75;;;17.70;99.90;;;;;;5103246;28;20079;-70
2022/08/29 05:52:40;;;;;;;17.15;3.28;;;17.70;99.90;;;;;;5070460;28;20084;-76
2022/08/29 05:55:06;;;;;;;15.25;3.50;;;17.70;99.90;;;;;;5103506;28;20508;-70
2022/08/29 05:57:32;;;;;;;18.50;3.30;;;17.80;99.90;;;;;;5098568;28;20047;-70
2022/08/29 05:59:57;;;;;;;19.95;3.60;;;17.80;99.90;;;;;;5091215;28;20100;-70
2022/08/29 06:02:24;;;;;;;15.82;3.20;;;17.90;99.90;;;;;;5086412;28;20051;-70
2022/08/29 06:04:50;;;;;;;16.67;3.33;;;17.90;99.90;;;;;;5087741;28;20651;-73
2022/08/29 06:07:16;;;;;;;14.35;3.35;;;18.00;99.90;;;;;;5086878;28;20052;-78
2022/08/29 06:09:43;;;;;;;26.42;4.13;;;18.10;99.90;;;;;;5087735;28;20066;-70
2022/08/29 06:12:10;;;;;;;18.52;3.97;;;18.20;99.90;;;;;;5088026;28;20048;-70
2022/08/29 06:14:36;;;;;;;15.98;3.33;;;18.20;99.90;;;;;;5088817;28;20394;-70
2022/08/29 06:17:03;;;;;;;22.35;5.32;;;18.20;99.90;;;;;;5087898;28;20040;-78
2022/08/29 06:19:33;;;;;;;20.17;4.72;;;18.20;99.90;;;;;;5088980;28;20047;-71
2022/08/29 06:22:02;;;;;;;17.88;3.50;;;18.20;99.90;;;;;;5089422;28;20039;-71
2022/08/29 06:24:31;;;;;;;17.77;3.88;;;18.20;99.90;;;;;;5089161;28;20106;-70
2022/08/29 06:26:58;;;;;;;24.98;4.13;;;18.20;99.90;;;;;;5088154;28;20051;-70
2022/08/29 06:29:25;;;;;;;25.15;4.38;;;18.20;99.90;;;;;;5088787;28;20472;-71
2022/08/29 06:31:52;;;;;;;20.33;4.50;;;18.20;99.90;;;;;;5087477;28;20489;-71
2022/08/29 06:34:18;;;;;;;22.25;3.55;;;18.20;99.90;;;;;;5086731;28;20044;-71
2022/08/29 06:36:44;;;;;;;13.65;3.45;;;18.20;99.90;;;;;;5072748;28;20051;-70
2022/08/29 06:39:10;;;;;;;20.08;4.22;;;18.20;99.90;;;;;;5087727;28;20048;-71
2022/08/29 06:41:38;;;;;;;14.15;3.72;;;18.30;99.90;;;;;;5119816;27;20032;-70
2022/08/29 06:44:04;;;;;;;25.55;4.20;;;18.30;99.90;;;;;;5086588;28;20083;-70
2022/08/29 06:46:42;;;;;;;20.95;4.03;;;18.30;99.90;;;;;;5088412;28;20067;-70
2022/08/29 06:49:11;;;;;;;18.58;4.28;;;18.30;99.90;;;;;;5096480;28;20036;-71
2022/08/29 06:51:39;;;;;;;24.65;4.20;;;18.40;99.90;;;;;;5087974;28;20056;-71
2022/08/29 06:54:07;;;;;;;18.70;4.68;;;18.40;99.90;;;;;;5085051;28;20046;-71
2022/08/29 06:56:33;;;;;;;16.90;4.47;;;18.50;99.90;;;;;;5087127;28;20058;-70
2022/08/29 06:58:59;;;;;;;22.60;4.07;;;18.50;99.90;;;;;;5087486;28;20051;-70
2022/08/29 07:01:25;;;;;;;14.95;3.47;;;18.60;99.90;;;;;;5093279;28;20042;-70
2022/08/29 07:03:55;;;;;;;21.33;4.88;;;18.60;99.90;;;;;;5087792;28;20889;-71
2022/08/29 07:06:22;;;;;;;23.70;4.47;;;18.70;99.90;;;;;;5087699;28;20078;-70
2022/08/29 07:08:48;;;;;;;18.30;3.58;;;18.60;99.90;;;;;;5086000;28;20471;-71
2022/08/29 07:11:16;;;;;;;18.48;4.20;;;18.70;99.90;;;;;;5070582;28;20097;-70
2022/08/29 07:13:42;;;;;;;19.15;3.83;;;18.80;99.90;;;;;;5086782;28;20486;-92
2022/08/29 07:16:15;;;;;;;22.80;4.15;;;18.80;99.90;;;;;;5087259;28;20119;-71
2022/08/29 07:18:41;;;;;;;30.85;3.60;;;18.90;99.90;;;;;;5120809;27;20554;-70
2022/08/29 07:21:09;;;;;;;26.75;4.22;;;18.90;99.90;;;;;;5087829;28;20048;-70
2022/08/29 07:23:36;;;;;;;23.92;3.55;;;18.90;99.90;;;;;;5086635;28;20090;-70
2022/08/29 07:26:12;;;;;;;18.20;3.90;;;19.00;99.90;;;;;;5086936;28;20070;-70
2022/08/29 07:28:38;;;;;;;19.25;4.13;;;19.00;99.90;;;;;;5091606;28;20051;-70
2022/08/29 07:31:05;;;;;;;18.00;3.65;;;19.10;99.90;;;;;;5102399;28;20052;-70
2022/08/29 07:33:31;;;;;;;18.65;4.20;;;19.10;99.90;;;;;;5101098;28;20031;-71
2022/08/29 07:35:58;;;;;;;13.80;3.50;;;19.10;99.90;;;;;;5128589;27;20055;-70
2022/08/29 07:38:24;;;;;;;17.80;4.07;;;19.20;99.90;;;;;;5100581;28;20099;-69
2022/08/29 07:41:05;;;;;;;22.70;4.47;;;19.40;99.90;;;;;;5094218;28;20127;-70
2022/08/29 07:43:31;;;;;;;20.10;3.63;;;19.50;99.90;;;;;;5113279;28;20040;-70
2022/08/29 07:45:57;;;;;;;16.77;3.95;;;19.50;99.90;;;;;;5086356;28;20513;-70
2022/08/29 07:48:24;;;;;;;19.20;3.40;;;19.50;99.90;;;;;;5087093;28;20036;-71
2022/08/29 07:50:51;;;;;;;23.77;4.00;;;19.50;99.90;;;;;;5083315;28;20095;-71
2022/08/29 07:53:18;;;;;;;16.48;3.45;;;19.50;99.90;;;;;;5097116;28;20054;-70
2022/08/29 07:55:44;;;;;;;19.52;3.47;;;19.50;99.90;;;;;;5099701;28;20075;-71
2022/08/29 07:58:10;;;;;;;16.77;3.47;;;19.40;99.90;;;;;;5105149;28;20038;-70
2022/08/29 08:00:36;;;;;;;9.65;2.97;;;19.30;99.90;;;;;;5102374;28;20109;-71
2022/08/29 08:03:02;;;;;;;14.60;3.63;;;19.30;99.90;;;;;;5106513;28;20044;-75
2022/08/29 08:05:27;;;;;;;16.58;3.53;;;19.30;99.90;;;;;;5103375;28;20043;-70
2022/08/29 08:07:53;;;;;;;13.75;4.07;;;19.30;99.90;;;;;;5108401;28;20147;-70
2022/08/29 08:10:19;;;;;;;18.08;4.05;;;19.40;99.90;;;;;;5104090;28;20043;-71
2022/08/29 08:12:46;;;;;;;12.00;3.08;;;19.50;99.90;;;;;;5103791;28;20040;-71
2022/08/29 08:15:13;;;;;;;15.20;2.85;;;19.60;99.90;;;;;;5097506;28;20044;-69
2022/08/29 08:17:40;;;;;;;8.02;2.75;;;19.70;99.90;;;;;;5090697;28;20408;-69
2022/08/29 08:20:07;;;;;;;15.25;3.55;;;19.80;99.90;;;;;;5123422;27;20413;-70
2022/08/29 08:22:33;;;;;;;14.65;3.22;;;19.90;99.90;;;;;;5087344;28;20044;-71
2022/08/29 08:24:59;;;;;;;15.68;3.60;;;20.10;99.90;;;;;;5103335;28;20047;-69
2022/08/29 08:27:25;;;;;;;12.75;3.13;;;20.20;99.90;;;;;;5089052;28;20334;-69
2022/08/29 08:29:50;;;;;;;16.48;3.17;;;20.30;99.90;;;;;;5088618;28;20040;-69
2022/08/29 08:32:16;;;;;;;17.67;4.03;;;20.40;99.90;;;;;;5096906;28;20035;-68
2022/08/29 08:34:42;;;;;;;18.35;3.67;;;20.50;99.90;;;;;;5096511;28;20102;-68
2022/08/29 08:37:09;;;;;;;17.27;3.63;;;20.40;99.90;;;;;;5100148;28;20122;-68
2022/08/29 08:39:36;;;;;;;18.35;3.15;;;20.30;99.90;;;;;;5106332;27;20048;-67
2022/08/29 08:42:27;;;;;;;21.02;4.40;;;20.10;99.90;;;;;;5108387;28;20592;-68
2022/08/29 08:45:05;;;;;;;15.25;2.95;;;20.00;99.90;;;;;;5091116;28;20295;-67
2022/08/29 08:47:46;;;;;;;20.65;3.70;;;19.90;99.90;;;;;;5097534;28;20048;-67
2022/08/29 08:50:19;;;;;;;18.63;3.75;;;19.80;99.90;;;;;;5103480;28;20097;-66
2022/08/29 08:52:52;;;;;;;13.82;2.80;;;19.80;99.90;;;;;;5105229;28;20031;-67
2022/08/29 08:55:41;;;;;;;17.13;3.40;;;19.90;99.90;;;;;;5105787;28;20075;-66
2022/08/29 08:58:23;;;;;;;26.83;3.85;;;20.00;99.90;;;;;;5106393;28;20547;-67
2022/08/29 09:00:59;;;;;;;21.75;3.83;;;20.00;99.90;;;;;;5105521;28;20126;-67
2022/08/29 09:03:57;;;;;;;13.13;3.28;;;19.90;99.90;;;;;;5104726;28;20110;-67
2022/08/29 09:06:52;;;;;;;18.67;3.17;;;19.90;99.90;;;;;;5096712;28;20458;-67
2022/08/29 09:10:00;;;;;;;16.77;2.97;;;19.70;99.90;;;;;;5098305;28;20498;-67
2022/08/29 09:12:34;;;;;;;13.10;2.80;;;19.80;99.90;;;;;;5101432;28;20054;-67
2022/08/29 09:15:09;;;;;;;18.98;3.22;;;20.00;99.90;;;;;;5100671;28;20100;-67
2022/08/29 09:17:42;;;;;;;25.83;4.35;;;20.30;99.90;;;;;;5100996;28;20042;-67
2022/08/29 09:20:14;;;;;;;17.83;2.90;;;20.40;99.90;;;;;;5105129;28;20035;-67
2022/08/29 09:22:42;;;;;;;12.60;2.90;;;20.50;99.90;;;;;;5104586;28;20046;-67
2022/08/29 09:25:10;;;;;;;17.23;2.95;;;20.70;99.90;;;;;;5103147;28;20043;-67
2022/08/29 09:27:37;;;;;;;14.57;2.75;;;20.80;99.90;;;;;;5100441;28;20032;-67
2022/08/29 09:30:13;;;;;;;25.02;3.40;;;20.90;99.90;;;;;;5102798;28;20043;-93
2022/08/29 09:33:00;;;;;;;20.30;2.80;;;20.80;99.90;;;;;;5103448;28;20520;-67
2022/08/29 09:35:41;;;;;;;15.10;3.05;;;20.60;99.90;;;;;;5082533;28;20085;-66
2022/08/29 09:38:27;;;;;;;16.50;3.58;;;20.40;99.90;;;;;;5102710;28;20051;-83
2022/08/29 09:40:58;;;;;;;14.18;3.03;;;20.20;99.90;;;;;;5085490;28;20041;-67
2022/08/29 09:43:43;;;;;;;8.20;2.35;;;20.10;99.90;;;;;;5087728;28;20040;-70
2022/08/29 09:46:24;;;;;;;14.98;2.92;;;20.20;99.90;;;;;;5089344;28;20075;-67
2022/08/29 09:49:04;;;;;;;8.93;2.55;;;20.40;99.90;;;;;;5090154;28;20043;-76
2022/08/29 09:51:29;;;;;;;;;;;20.50;99.90;;;;;;5090576;28;20079;-67
2022/08/29 09:54:26;;;;;;;14.52;3.28;;;20.50;99.90;;;;;;5091671;28;19994;-67
2022/08/29 09:57:04;;;;;;;12.63;2.95;;;20.50;99.90;;;;;;5076100;28;20051;-67
2022/08/29 09:59:41;;;;;;;9.30;2.50;;;20.50;99.90;;;;;;5096718;28;20383;-67
2022/08/29 10:02:21;;;;;;;13.65;2.83;;;20.50;97.80;;;;;;5090275;28;20047;-68
2022/08/29 10:04:51;;;;;;;9.70;2.67;;;20.40;98.50;;;;;;5101503;28;20122;-66
2022/08/29 10:07:21;;;;;;;11.15;2.55;;;20.50;99.90;;;;;;5090965;28;20040;-66
2022/08/29 10:10:01;;;;;;;11.63;2.75;;;20.60;98.60;;;;;;5093140;28;20454;-72
2022/08/29 10:12:32;;;;;;;;;;;20.60;94.40;;;;;;5091001;28;20051;-67
2022/08/29 10:15:03;;;;;;;14.10;2.60;;;20.60;97.70;;;;;;5091593;28;19920;-66
2022/08/29 10:20:42;;;;;;;11.55;2.17;;;20.50;96.90;;;;;;5098921;28;20452;-66
2022/08/29 10:23:53;;;;;;;14.95;2.78;;;20.60;97.30;;;;;;5090521;28;20047;-67
2022/08/29 10:26:38;;;;;;;9.05;2.13;;;20.60;98.00;;;;;;5121548;27;20122;-66
2022/08/29 10:29:07;;;;;;;8.75;2.20;;;20.50;96.30;;;;;;5098233;28;20062;-78
2022/08/29 10:31:41;;;;;;;10.95;2.30;;;20.40;96.40;;;;;;5098184;27;20071;-86
2022/08/29 10:34:17;;;;;;;11.57;2.15;;;20.30;91.40;;;;;;5103904;28;20106;-67
2022/08/29 10:36:53;;;;;;;11.02;1.92;;;20.20;95.10;;;;;;5085246;28;20047;-66
2022/08/29 10:39:40;;;;;;;8.40;2.20;;;20.10;96.50;;;;;;5078703;28;20571;-78
2022/08/29 10:42:15;;;;;;;13.82;2.08;;;20.20;99.10;;;;;;5088837;28;20605;-83
2022/08/29 10:44:49;;;;;;;9.10;2.17;;;20.20;98.10;;;;;;5088096;28;20079;-77
2022/08/29 10:47:37;;;;;;;7.57;2.17;;;20.10;96.40;;;;;;5086495;28;20170;-67
2022/08/29 10:50:27;;;;;;;6.43;1.92;;;20.10;99.90;;;;;;5087105;28;20127;-66
2022/08/29 10:53:04;;;;;;;17.10;2.47;;;20.10;99.90;;;;;;5080903;28;20152;-67
2022/08/29 10:55:51;;;;;;;9.52;2.78;;;20.10;99.90;;;;;;5084461;28;20402;-66
2022/08/29 10:58:44;;;;;;;9.88;2.25;;;20.10;99.90;;;;;;5086273;28;20066;-66
2022/08/29 11:01:16;;;;;;;10.35;2.40;;;20.10;99.90;;;;;;5086171;28;20379;-66
2022/08/29 11:04:09;;;;;;;8.30;2.28;;;20.10;99.90;;;;;;5087901;28;20093;-82
2022/08/29 11:06:46;;;;;;;11.30;2.60;;;20.10;99.90;;;;;;5079764;28;20048;-66
2022/08/29 11:09:16;;;;;;;10.13;2.47;;;20.00;99.10;;;;;;5067765;28;20044;-67
2022/08/29 11:12:01;;;;;;;5.22;2.03;;;20.00;99.50;;;;;;5085102;28;20790;-66
2022/08/29 11:14:41;;;;;;;9.40;2.05;;;20.10;99.90;;;;;;5096995;28;20039;-69
2022/08/29 11:17:11;;;;;;;6.47;2.10;;;20.00;91.50;;;;;;5086417;28;20085;-67
2022/08/29 11:19:46;;;;;;;11.23;2.13;;;20.00;94.60;;;;;;5081085;28;20036;-66
2022/08/29 11:22:23;;;;;;;7.68;1.83;;;20.10;95.90;;;;;;5083050;28;20075;-67
2022/08/29 11:25:06;;;;;;;8.10;2.53;;;20.20;95.50;;;;;;5094102;28;20039;-68
2022/08/29 11:28:11;;;;;;;14.80;1.90;;;20.30;96.50;;;;;;5083714;28;20097;-66
2022/08/29 11:30:45;;;;;;;8.27;2.10;;;20.40;93.10;;;;;;5083524;28;20063;-66
2022/08/29 11:33:36;;;;;;;11.75;1.90;;;20.40;90.70;;;;;;5117093;27;20054;-66
2022/08/29 11:36:24;;;;;;;8.48;2.00;;;20.60;88.00;;;;;;5077777;28;20440;-66
2022/08/29 11:39:08;;;;;;;8.00;2.53;;;20.90;93.00;;;;;;5084032;28;20553;-66
2022/08/29 11:41:38;;;;;;;7.55;2.17;;;21.00;84.40;;;;;;5097224;28;20036;-66
2022/08/29 11:44:22;;;;;;;11.55;2.15;;;20.90;79.60;;;;;;5102362;28;20043;-67
2022/08/29 11:46:50;;;;;;;6.13;1.88;;;21.00;82.60;;;;;;5099227;28;20392;-66
2022/08/29 11:49:32;;;;;;;8.40;2.17;;;20.90;79.60;;;;;;5101156;28;20058;-66
2022/08/29 11:52:07;;;;;;;7.95;1.70;;;21.00;87.30;;;;;;5098230;28;20095;-67
2022/08/29 11:54:36;;;;;;;12.02;2.25;;;21.00;79.60;;;;;;5088550;28;20468;-66
2022/08/29 11:57:02;;;;;;;11.53;2.17;;;21.00;79.80;;;;;;5097936;28;20078;-66
2022/08/29 11:59:49;;;;;;;5.40;1.90;;;21.10;84.50;;;;;;5098517;28;20112;-67
2022/08/29 12:02:27;;;;;;;5.60;1.67;;;21.20;80.90;;;;;;5100067;28;20046;-87
2022/08/29 12:04:55;;;;;;;10.73;2.05;;;21.10;85.20;;;;;;5102197;28;20404;-66
2022/08/29 12:07:49;;;;;;;7.03;2.07;;;21.20;84.90;;;;;;5082705;28;20040;-66
2022/08/29 12:10:22;;;;;;;7.97;1.83;;;21.40;75.80;;;;;;5086098;28;20048;-67
2022/08/29 12:12:48;;;;;;;8.02;2.00;;;21.40;84.40;;;;;;5101085;28;20067;-66
2022/08/29 12:15:31;;;;;;;10.60;1.52;;;21.50;90.30;;;;;;5086145;28;20036;-66
2022/08/29 12:17:59;;;;;;;6.80;2.03;;;21.60;74.10;;;;;;5084331;28;20056;-78
2022/08/29 12:20:32;;;;;;;7.07;1.88;;;21.60;74.50;;;;;;5085888;28;20044;-66
2022/08/29 12:23:11;;;;;;;11.48;2.45;;;21.70;81.70;;;;;;5085779;28;20797;-66
2022/08/29 12:25:43;;;;;;;8.73;2.00;;;21.80;70.90;;;;;;5078316;28;20390;-66
2022/08/29 12:28:29;;;;;;;3.40;1.50;;;21.80;73.70;;;;;;5090044;28;20082;-82
2022/08/29 12:31:17;;;;;;;11.25;2.50;;;21.70;74.10;;;;;;5096797;28;20058;-66
2022/08/29 12:33:48;;;;;;;8.00;2.03;;;21.70;73.60;;;;;;5099743;28;20116;-65
2022/08/29 12:36:31;;;;;;;10.00;1.60;;;21.50;74.20;;;;;;5090709;28;20188;-66
2022/08/29 12:39:09;;;;;;;6.05;1.90;;;21.40;74.70;;;;;;5084517;28;20082;-70
2022/08/29 12:42:03;;;;;;;6.63;2.00;;;21.40;74.70;;;;;;5088117;28;20062;-66
2022/08/29 12:44:59;;;;;;;9.10;1.40;;;21.30;81.80;;;;;;5121914;27;20393;-66
2022/08/29 12:47:40;;;;;;;6.78;1.50;;;21.30;82.10;;;;;;5081391;28;20052;-66
2022/08/29 12:50:17;;;;;;;4.13;1.83;;;21.20;75.70;;;;;;5090149;28;20571;-66
2022/08/29 12:52:58;;;;;;;4.47;1.63;;;21.10;76.60;;;;;;5088584;28;20058;-66
2022/08/29 12:55:30;;;;;;;10.10;2.00;;;21.00;85.00;;;;;;5087311;28;20073;-70
2022/08/29 12:57:56;;;;;;;7.68;2.08;;;20.90;85.80;;;;;;5087990;28;20571;-66
2022/08/29 13:00:31;;;;;;;5.68;1.60;;;21.00;92.10;;;;;;5096719;28;20375;-66
2022/08/29 13:03:32;;;;;;;9.95;2.25;;;20.90;88.40;;;;;;5102019;28;20528;-66
2022/08/29 13:06:10;;;;;;;11.30;2.25;;;20.90;92.10;;;;;;5083360;28;20093;-66
2022/08/29 13:08:36;;;;;;;8.38;2.13;;;20.90;97.80;;;;;;5102332;28;20476;-66